createdAt,value
2019-03-08T00:00:14.219Z,75.94
2019-03-08T00:01:14.204Z,76.56
2019-03-08T00:02:14.194Z,76.90
2019-03-08T00:03:14.204Z,76.04
2019-03-08T00:04:14.174Z,75.73
2019-03-08T00:05:14.163Z,76.76
2019-03-08T00:06:14.157Z,76.76
2019-03-08T00:07:14.167Z,76.04
2019-03-08T00:08:14.140Z,75.94
2019-03-08T00:09:14.124Z,76.56
2019-03-08T00:10:14.118Z,76.35
2019-03-08T00:11:14.103Z,76.76
2019-03-08T00:12:14.088Z,77.17
2019-03-08T00:13:14.095Z,78.41
2019-03-08T00:14:14.062Z,79.68
2019-03-08T00:15:14.060Z,80.51
2019-03-08T00:16:14.046Z,80.51
2019-03-08T00:17:14.038Z,81.05
2019-03-08T00:18:14.051Z,81.47
2019-03-08T00:19:14.036Z,83.12
2019-03-08T00:20:14.004Z,83.32
2019-03-08T00:21:13.990Z,81.81
2019-03-08T00:22:13.978Z,82.74
2019-03-08T00:23:13.977Z,83.87
2019-03-08T00:24:13.960Z,83.47
2019-03-08T00:25:13.965Z,82.95
2019-03-08T00:26:13.934Z,81.71
2019-03-08T00:27:13.964Z,82.95
2019-03-08T00:28:13.916Z,84.91
2019-03-08T00:29:13.931Z,87.38
2019-03-08T00:30:13.898Z,87.52
2019-03-08T00:31:13.900Z,88.86
2019-03-08T00:32:13.870Z,90.14
2019-03-08T00:33:13.876Z,91.07
2019-03-08T00:34:13.855Z,91.17
2019-03-08T00:35:13.871Z,92.00
2019-03-08T00:36:13.831Z,92.76
2019-03-08T00:37:13.819Z,93.22
2019-03-08T00:38:13.815Z,93.43
2019-03-08T00:39:13.813Z,94.15
2019-03-08T00:40:13.784Z,94.56
2019-03-08T00:41:13.798Z,95.18
2019-03-08T00:42:13.770Z,95.64
2019-03-08T00:43:13.751Z,95.64
2019-03-08T00:44:13.742Z,95.95
2019-03-08T00:45:13.731Z,95.74
2019-03-08T00:46:13.739Z,96.77
2019-03-08T00:47:13.714Z,96.47
2019-03-08T00:48:13.701Z,96.67
2019-03-08T00:49:13.690Z,96.15
2019-03-08T00:50:13.681Z,96.15
2019-03-08T00:51:13.724Z,96.67
2019-03-08T00:52:13.673Z,96.98
2019-03-08T00:53:15.662Z,96.15
2019-03-08T00:54:13.636Z,96.15
2019-03-08T00:55:13.630Z,95.95
2019-03-08T00:56:13.619Z,96.88
2019-03-08T00:57:13.624Z,95.64
2019-03-08T00:58:13.590Z,95.64
2019-03-08T00:59:13.588Z,95.43
2019-03-08T01:00:13.580Z,95.64
2019-03-08T01:01:13.562Z,95.12
2019-03-08T01:02:13.573Z,94.35
2019-03-08T01:03:13.558Z,94.04
2019-03-08T01:04:13.538Z,94.77
2019-03-08T01:05:13.559Z,94.77
2019-03-08T01:06:13.506Z,93.73
2019-03-08T01:07:13.503Z,94.77
2019-03-08T01:08:13.506Z,94.56
2019-03-08T01:09:13.478Z,94.56
2019-03-08T01:10:13.469Z,94.60
2019-03-08T01:11:13.452Z,95.28
2019-03-08T01:12:13.445Z,95.18
2019-03-08T01:13:13.458Z,94.71
2019-03-08T01:14:13.427Z,94.46
2019-03-08T01:15:13.415Z,94.67
2019-03-08T01:16:13.401Z,94.04
2019-03-08T01:17:13.390Z,94.77
2019-03-08T01:18:13.382Z,94.04
2019-03-08T01:19:13.399Z,94.77
2019-03-08T01:20:13.360Z,94.77
2019-03-08T01:21:13.349Z,94.87
2019-03-08T01:22:13.342Z,94.81
2019-03-08T01:23:13.328Z,94.25
2019-03-08T01:24:13.314Z,94.25
2019-03-08T01:25:13.323Z,94.67
2019-03-08T01:26:13.291Z,95.07
2019-03-08T01:27:13.287Z,94.56
2019-03-08T01:28:13.276Z,94.35
2019-03-08T01:29:13.285Z,94.35
2019-03-08T01:30:13.266Z,94.15
2019-03-08T01:31:13.246Z,94.25
2019-03-08T01:32:13.237Z,94.72
2019-03-08T01:33:13.235Z,94.87
2019-03-08T01:34:13.214Z,94.77
2019-03-08T01:35:13.220Z,94.67
2019-03-08T01:36:13.188Z,94.42
2019-03-08T01:37:13.176Z,94.67
2019-03-08T01:38:13.176Z,95.03
2019-03-08T01:39:13.159Z,94.62
2019-03-08T01:40:13.151Z,94.56
2019-03-08T01:41:13.159Z,94.31
2019-03-08T01:42:13.145Z,93.59
2019-03-08T01:43:13.110Z,94.31
2019-03-08T01:44:13.101Z,94.72
2019-03-08T01:45:13.095Z,94.72
2019-03-08T01:46:13.089Z,95.03
2019-03-08T01:47:13.094Z,94.93
2019-03-08T01:48:13.059Z,95.76
2019-03-08T01:49:13.048Z,95.28
2019-03-08T01:50:13.035Z,96.11
2019-03-08T01:51:13.031Z,96.11
2019-03-08T01:52:13.043Z,96.52
2019-03-08T01:53:13.010Z,96.58
2019-03-08T01:54:12.998Z,96.58
2019-03-08T01:55:12.984Z,96.79
2019-03-08T01:56:12.970Z,97.45
2019-03-08T01:57:12.960Z,97.45
2019-03-08T01:58:12.972Z,97.45
2019-03-08T01:59:12.947Z,98.28
2019-03-08T02:00:12.934Z,97.86
2019-03-08T02:01:12.915Z,98.38
2019-03-08T02:02:12.911Z,98.79
2019-03-08T02:03:12.925Z,99.46
2019-03-08T02:04:12.895Z,99.87
2019-03-08T02:05:12.885Z,99.77
2019-03-08T02:06:12.868Z,99.87
2019-03-08T02:07:12.857Z,99.99
2019-03-08T02:08:12.842Z,99.99
2019-03-08T02:09:12.855Z,99.66
2019-03-08T02:10:12.823Z,99.99
2019-03-08T02:11:12.813Z,99.99
2019-03-08T02:12:12.839Z,99.99
2019-03-08T02:13:12.797Z,99.99
2019-03-08T02:14:12.799Z,99.99
2019-03-08T02:15:12.768Z,99.99
2019-03-08T02:16:12.755Z,99.99
2019-03-08T02:17:12.752Z,99.99
2019-03-08T02:18:12.738Z,99.99
2019-03-08T02:19:12.752Z,99.99
2019-03-08T02:20:12.717Z,99.99
2019-03-08T02:21:12.703Z,99.99
2019-03-08T02:22:12.698Z,99.99
2019-03-08T02:23:12.685Z,99.99
2019-03-08T02:24:12.683Z,99.99
2019-03-08T02:25:12.703Z,99.99
2019-03-08T02:26:12.654Z,99.99
2019-03-08T02:27:12.641Z,99.99
2019-03-08T02:28:12.627Z,99.99
2019-03-08T02:29:12.616Z,99.99
2019-03-08T02:30:12.627Z,99.99
2019-03-08T02:31:12.599Z,99.99
2019-03-08T02:32:12.609Z,99.99
2019-03-08T02:33:12.577Z,99.99
2019-03-08T02:34:12.573Z,99.99
2019-03-08T02:35:12.570Z,99.99
2019-03-08T02:36:12.567Z,99.99
2019-03-08T02:37:12.552Z,99.99
2019-03-08T02:38:12.548Z,99.99
2019-03-08T02:39:12.517Z,99.99
2019-03-08T02:40:12.503Z,99.99
2019-03-08T02:41:12.492Z,99.99
2019-03-08T02:42:12.502Z,99.99
2019-03-08T02:43:12.466Z,99.99
2019-03-08T02:44:12.459Z,99.99
2019-03-08T02:45:12.453Z,99.99
2019-03-08T02:46:12.459Z,99.99
2019-03-08T02:47:12.438Z,99.99
2019-03-08T02:48:12.415Z,99.99
2019-03-08T02:49:12.424Z,99.99
2019-03-08T02:50:12.390Z,99.99
2019-03-08T02:51:12.386Z,99.99
2019-03-08T02:52:12.392Z,99.99
2019-03-08T02:53:12.367Z,99.99
2019-03-08T02:54:12.355Z,99.99
2019-03-08T02:55:12.355Z,99.99
2019-03-08T02:56:12.328Z,99.99
2019-03-08T02:57:12.334Z,99.99
2019-03-08T02:58:12.305Z,99.99
2019-03-08T02:59:12.301Z,99.99
2019-03-08T03:00:12.306Z,99.99
2019-03-08T03:01:12.276Z,99.99
2019-03-08T03:02:12.268Z,99.99
2019-03-08T03:03:12.290Z,99.99
2019-03-08T03:04:12.257Z,99.99
2019-03-08T03:05:12.235Z,99.99
2019-03-08T03:06:12.243Z,99.99
2019-03-08T03:07:12.208Z,99.99
2019-03-08T03:08:12.236Z,99.99
2019-03-08T03:09:12.194Z,99.99
2019-03-08T03:10:12.177Z,99.99
2019-03-08T03:11:12.173Z,99.99
2019-03-08T03:12:12.163Z,99.99
2019-03-08T03:13:12.179Z,99.99
2019-03-08T03:14:12.140Z,99.99
2019-03-08T03:15:12.123Z,99.99
2019-03-08T03:16:12.114Z,99.99
2019-03-08T03:17:12.105Z,99.99
2019-03-08T03:18:12.721Z,99.99
2019-03-08T03:19:12.121Z,99.99
2019-03-08T03:20:12.074Z,99.99
2019-03-08T03:21:12.060Z,99.99
2019-03-08T03:22:12.047Z,99.99
2019-03-08T03:23:12.044Z,99.99
2019-03-08T03:24:12.055Z,99.99
2019-03-08T03:25:12.030Z,99.99
2019-03-08T03:26:12.015Z,99.99
2019-03-08T03:27:11.994Z,99.99
2019-03-08T03:28:11.995Z,99.99
2019-03-08T03:29:11.976Z,99.99
2019-03-08T03:30:11.987Z,99.99
2019-03-08T03:31:11.971Z,99.99
2019-03-08T03:32:11.962Z,99.99
2019-03-08T03:33:11.939Z,99.99
2019-03-08T03:34:11.924Z,99.99
2019-03-08T03:35:11.910Z,99.99
2019-03-08T03:36:11.928Z,99.99
2019-03-08T03:37:11.893Z,99.99
2019-03-08T03:38:11.889Z,99.99
2019-03-08T03:39:11.868Z,99.99
2019-03-08T03:40:11.865Z,99.99
2019-03-08T03:41:11.848Z,99.99
2019-03-08T03:42:11.858Z,99.99
2019-03-08T03:43:11.833Z,99.99
2019-03-08T03:44:11.819Z,99.99
2019-03-08T03:45:11.809Z,99.99
2019-03-08T03:46:11.802Z,99.99
2019-03-08T03:47:11.782Z,99.99
2019-03-08T03:48:11.798Z,99.99
2019-03-08T03:49:11.769Z,99.99
2019-03-08T03:50:11.768Z,99.99
2019-03-08T03:51:11.773Z,99.99
2019-03-08T03:52:11.733Z,99.99
2019-03-08T03:53:11.723Z,99.99
2019-03-08T03:54:11.725Z,99.99
2019-03-08T03:55:11.706Z,99.99
2019-03-08T03:56:11.693Z,99.99
2019-03-08T03:57:11.680Z,99.99
2019-03-08T03:58:11.670Z,99.99
2019-03-08T03:59:11.670Z,99.99
2019-03-08T04:00:11.841Z,99.99
2019-03-08T04:01:11.635Z,99.99
2019-03-08T04:02:11.624Z,99.99
2019-03-08T04:03:11.642Z,99.99
2019-03-08T04:04:11.605Z,99.99
2019-03-08T04:05:11.594Z,99.99
2019-03-08T04:06:11.585Z,99.99
2019-03-08T04:07:11.567Z,99.99
2019-03-08T04:08:11.560Z,99.99
2019-03-08T04:09:11.575Z,99.99
2019-03-08T04:10:11.563Z,99.99
2019-03-08T04:11:11.549Z,99.99
2019-03-08T04:12:11.517Z,99.99
2019-03-08T04:13:11.510Z,99.99
2019-03-08T04:14:11.496Z,99.99
2019-03-08T04:15:11.490Z,99.99
2019-03-08T04:16:11.476Z,99.99
2019-03-08T04:17:11.482Z,99.99
2019-03-08T04:18:11.456Z,99.99
2019-03-08T04:19:11.463Z,99.99
2019-03-08T04:20:11.432Z,99.99
2019-03-08T04:21:11.430Z,99.99
2019-03-08T04:22:11.407Z,99.99
2019-03-08T04:23:11.404Z,99.99
2019-03-08T04:24:11.391Z,99.99
2019-03-08T04:25:11.396Z,99.99
2019-03-08T04:26:11.366Z,99.99
2019-03-08T04:27:11.361Z,99.99
2019-03-08T04:28:11.356Z,99.99
2019-03-08T04:29:11.338Z,99.99
2019-03-08T04:30:11.358Z,99.99
2019-03-08T04:31:11.311Z,99.99
2019-03-08T04:32:11.307Z,99.99
2019-03-08T04:33:11.293Z,99.99
2019-03-08T04:34:11.297Z,99.99
2019-03-08T04:35:11.276Z,99.99
2019-03-08T04:36:11.286Z,99.99
2019-03-08T04:37:11.255Z,99.99
2019-03-08T04:38:11.248Z,99.99
2019-03-08T04:39:11.226Z,99.99
2019-03-08T04:40:11.217Z,99.99
2019-03-08T04:41:11.212Z,99.99
2019-03-08T04:42:11.229Z,99.99
2019-03-08T04:43:11.184Z,99.99
2019-03-08T04:44:11.175Z,99.99
2019-03-08T04:45:11.165Z,99.99
2019-03-08T04:46:11.153Z,99.99
2019-03-08T04:47:11.148Z,99.99
2019-03-08T04:48:11.155Z,99.99
2019-03-08T04:49:11.124Z,99.99
2019-03-08T04:50:11.118Z,99.99
2019-03-08T04:51:11.098Z,99.99
2019-03-08T04:52:11.114Z,99.99
2019-03-08T04:53:11.080Z,99.99
2019-03-08T04:54:11.066Z,99.99
2019-03-08T04:55:11.063Z,99.99
2019-03-08T04:56:11.054Z,99.99
2019-03-08T04:57:11.040Z,99.99
2019-03-08T04:58:11.070Z,99.99
2019-03-08T04:59:11.019Z,99.99
2019-03-08T05:00:11.005Z,99.99
2019-03-08T05:01:10.997Z,99.96
2019-03-08T05:02:10.986Z,99.96
2019-03-08T05:03:10.970Z,99.99
2019-03-08T05:04:10.980Z,99.99
2019-03-08T05:05:10.969Z,99.86
2019-03-08T05:06:10.962Z,99.99
2019-03-08T05:07:10.933Z,99.99
2019-03-08T05:08:10.922Z,99.99
2019-03-08T05:09:10.927Z,99.99
2019-03-08T05:10:10.901Z,99.99
2019-03-08T05:11:10.885Z,99.99
2019-03-08T05:12:10.876Z,99.99
2019-03-08T05:13:10.867Z,99.99
2019-03-08T05:14:10.890Z,99.99
2019-03-08T05:15:10.844Z,99.99
2019-03-08T05:16:10.833Z,99.99
2019-03-08T05:17:10.844Z,99.99
2019-03-08T05:18:10.813Z,99.99
2019-03-08T05:19:10.808Z,99.99
2019-03-08T05:20:10.793Z,99.99
2019-03-08T05:21:10.783Z,99.99
2019-03-08T05:22:10.791Z,99.99
2019-03-08T05:23:10.773Z,99.99
2019-03-08T05:24:10.748Z,99.99
2019-03-08T05:25:10.740Z,99.99
2019-03-08T05:26:10.725Z,99.99
2019-03-08T05:27:10.721Z,99.99
2019-03-08T05:28:10.732Z,99.99
2019-03-08T05:29:10.695Z,99.99
2019-03-08T05:30:10.707Z,99.99
2019-03-08T05:31:10.681Z,99.99
2019-03-08T05:32:10.664Z,99.99
2019-03-08T05:33:10.656Z,99.99
2019-03-08T05:34:10.663Z,99.96
2019-03-08T05:35:10.669Z,99.86
2019-03-08T05:36:10.752Z,99.86
2019-03-08T05:37:10.665Z,99.99
2019-03-08T05:38:10.613Z,99.99
2019-03-08T05:39:10.594Z,99.65
2019-03-08T05:40:10.600Z,99.99
2019-03-08T05:41:10.579Z,99.86
2019-03-08T05:42:10.580Z,99.96
2019-03-08T05:43:10.565Z,99.86
2019-03-08T05:44:10.537Z,99.65
2019-03-08T05:45:10.533Z,99.86
2019-03-08T05:46:10.518Z,99.99
2019-03-08T05:47:10.501Z,99.91
2019-03-08T05:48:10.525Z,99.86
2019-03-08T05:49:10.508Z,99.99
2019-03-08T05:50:10.468Z,99.65
2019-03-08T05:51:10.473Z,98.93
2019-03-08T05:52:10.451Z,99.14
2019-03-08T05:53:10.441Z,98.93
2019-03-08T05:54:10.435Z,99.65
2019-03-08T05:55:10.445Z,99.14
2019-03-08T05:56:10.407Z,98.93
2019-03-08T05:57:10.399Z,98.83
2019-03-08T05:58:10.407Z,98.93
2019-03-08T05:59:10.382Z,98.93
2019-03-08T06:00:10.385Z,98.93
2019-03-08T06:01:10.353Z,99.14
2019-03-08T06:02:10.370Z,99.04
2019-03-08T06:03:10.336Z,98.93
2019-03-08T06:04:10.324Z,98.72
2019-03-08T06:05:10.332Z,98.52
2019-03-08T06:06:10.308Z,99.04
2019-03-08T06:07:10.289Z,98.62
2019-03-08T06:08:10.281Z,98.52
2019-03-08T06:09:10.270Z,98.93
2019-03-08T06:10:10.281Z,98.83
2019-03-08T06:11:10.267Z,98.93
2019-03-08T06:12:10.238Z,98.93
2019-03-08T06:13:10.228Z,98.93
2019-03-08T06:14:10.214Z,99.04
2019-03-08T06:15:10.215Z,99.04
2019-03-08T06:16:10.241Z,99.65
2019-03-08T06:17:10.207Z,99.65
2019-03-08T06:18:10.181Z,99.14
2019-03-08T06:19:10.166Z,99.04
2019-03-08T06:20:10.155Z,98.83
2019-03-08T06:21:10.150Z,98.93
2019-03-08T06:22:10.158Z,98.83
2019-03-08T06:23:10.117Z,98.52
2019-03-08T06:24:10.109Z,98.52
2019-03-08T06:25:10.101Z,98.52
2019-03-08T06:26:10.086Z,97.89
2019-03-08T06:27:10.110Z,98.41
2019-03-08T06:28:10.096Z,98.52
2019-03-08T06:29:10.070Z,98.21
2019-03-08T06:30:10.048Z,98.31
2019-03-08T06:31:10.033Z,98.31
2019-03-08T06:32:10.025Z,97.69
2019-03-08T06:33:10.031Z,98.41
2019-03-08T06:34:10.005Z,98.72
2019-03-08T06:35:09.990Z,98.52
2019-03-08T06:36:09.990Z,98.00
2019-03-08T06:37:09.989Z,98.83
2019-03-08T06:38:10.000Z,98.31
2019-03-08T06:39:09.957Z,98.41
2019-03-08T06:40:09.948Z,97.44
2019-03-08T06:41:09.929Z,97.69
2019-03-08T06:42:09.922Z,98.00
2019-03-08T06:43:09.931Z,97.64
2019-03-08T06:44:09.894Z,97.75
2019-03-08T06:45:09.883Z,97.54
2019-03-08T06:46:09.877Z,97.59
2019-03-08T06:47:09.866Z,98.41
2019-03-08T06:48:09.853Z,98.21
2019-03-08T06:49:09.870Z,98.41
2019-03-08T06:50:09.848Z,97.69
2019-03-08T06:51:09.823Z,98.10
2019-03-08T06:52:09.810Z,98.21
2019-03-08T06:53:09.799Z,98.10
2019-03-08T06:54:09.814Z,98.47
2019-03-08T06:55:09.774Z,98.27
2019-03-08T06:56:09.771Z,98.16
2019-03-08T06:57:09.755Z,97.75
2019-03-08T06:58:09.762Z,98.10
2019-03-08T06:59:09.768Z,97.96
2019-03-08T07:00:09.723Z,98.16
2019-03-08T07:01:09.718Z,98.06
2019-03-08T07:02:09.708Z,97.44
2019-03-08T07:03:09.712Z,97.02
2019-03-08T07:04:09.707Z,97.13
2019-03-08T07:05:09.674Z,96.82
2019-03-08T07:06:09.663Z,96.82
2019-03-08T07:07:09.646Z,96.92
2019-03-08T07:08:09.635Z,96.82
2019-03-08T07:09:09.658Z,97.96
2019-03-08T07:10:09.612Z,97.85
2019-03-08T07:11:09.611Z,97.64
2019-03-08T07:12:09.599Z,96.82
2019-03-08T07:13:09.588Z,97.13
2019-03-08T07:14:09.577Z,96.61
2019-03-08T07:15:09.594Z,97.13
2019-03-08T07:16:13.342Z,97.02
2019-03-08T07:17:10.538Z,96.72
2019-03-08T07:18:12.989Z,96.88
2019-03-08T07:19:09.551Z,96.82
2019-03-08T07:20:09.538Z,97.02
2019-03-08T07:21:09.495Z,96.72
2019-03-08T07:22:09.486Z,96.41
2019-03-08T07:23:11.052Z,96.09
2019-03-08T07:24:09.469Z,95.99
2019-03-08T07:25:09.474Z,96.20
2019-03-08T07:26:09.453Z,96.30
2019-03-08T07:27:09.429Z,96.20
2019-03-08T07:28:09.428Z,96.20
2019-03-08T07:29:09.412Z,95.78
2019-03-08T07:30:09.420Z,95.89
2019-03-08T07:31:09.393Z,95.68
2019-03-08T07:32:09.398Z,95.57
2019-03-08T07:33:09.370Z,95.84
2019-03-08T07:34:11.024Z,95.99
2019-03-08T07:35:09.349Z,95.57
2019-03-08T07:36:09.406Z,96.15
2019-03-08T07:37:09.349Z,95.57
2019-03-08T07:38:09.317Z,95.57
2019-03-08T07:39:09.299Z,96.05
2019-03-08T07:40:09.297Z,95.74
2019-03-08T07:41:09.285Z,96.05
2019-03-08T07:42:09.289Z,95.37
2019-03-08T07:43:09.263Z,95.32
2019-03-08T07:44:09.250Z,94.81
2019-03-08T07:45:09.240Z,94.60
2019-03-08T07:46:09.232Z,94.92
2019-03-08T07:47:09.241Z,94.60
2019-03-08T07:48:09.212Z,93.47
2019-03-08T07:49:09.234Z,93.84
2019-03-08T07:50:09.182Z,93.94
2019-03-08T07:51:09.183Z,94.72
2019-03-08T07:52:09.165Z,93.53
2019-03-08T07:53:09.171Z,94.00
2019-03-08T07:54:09.175Z,93.43
2019-03-08T07:55:09.138Z,93.59
2019-03-08T07:56:09.126Z,93.79
2019-03-08T07:57:09.111Z,93.73
2019-03-08T07:58:09.105Z,93.32
2019-03-08T07:59:09.104Z,93.22
2019-03-08T08:00:09.078Z,93.53
2019-03-08T08:01:09.071Z,93.18
2019-03-08T08:02:09.057Z,93.43
2019-03-08T08:03:09.061Z,92.97
2019-03-08T08:04:09.059Z,92.46
2019-03-08T08:05:09.032Z,93.28
2019-03-08T08:06:09.021Z,93.18
2019-03-08T08:07:09.003Z,92.46
2019-03-08T08:08:08.993Z,92.04
2019-03-08T08:09:09.009Z,92.21
2019-03-08T08:10:08.987Z,91.89
2019-03-08T08:11:08.995Z,90.76
2019-03-08T08:12:08.949Z,91.03
2019-03-08T08:13:08.936Z,90.99
2019-03-08T08:14:08.927Z,90.47
2019-03-08T08:15:08.920Z,88.62
2019-03-08T08:16:08.909Z,89.17
2019-03-08T08:17:08.915Z,90.20
2019-03-08T08:18:08.895Z,90.20
2019-03-08T08:19:08.870Z,91.17
2019-03-08T08:20:16.044Z,91.34
2019-03-08T08:21:09.882Z,90.92
2019-03-08T08:22:08.838Z,91.34
2019-03-08T08:23:08.858Z,90.72
2019-03-08T08:24:08.844Z,90.92
2019-03-08T08:25:08.808Z,90.31
2019-03-08T08:26:08.795Z,90.10
2019-03-08T08:27:08.821Z,90.51
2019-03-08T08:28:08.789Z,90.14
2019-03-08T08:29:08.767Z,89.94
2019-03-08T08:30:08.771Z,91.07
2019-03-08T08:31:09.283Z,90.25
2019-03-08T08:32:09.945Z,90.25
2019-03-08T08:33:09.061Z,90.76
2019-03-08T08:34:09.146Z,91.01
2019-03-08T08:35:08.704Z,92.41
2019-03-08T08:36:08.695Z,92.31
2019-03-08T08:37:08.697Z,93.03
2019-03-08T08:38:08.673Z,92.78
2019-03-08T08:39:08.655Z,93.19
2019-03-08T08:40:08.650Z,92.06
2019-03-08T08:41:08.637Z,92.06
2019-03-08T08:42:08.648Z,92.47
2019-03-08T08:43:08.631Z,91.96
2019-03-08T08:44:08.763Z,92.37
2019-03-08T08:45:08.724Z,92.47
2019-03-08T08:46:08.581Z,91.03
2019-03-08T08:47:08.577Z,90.92
2019-03-08T08:48:08.597Z,90.82
2019-03-08T08:49:08.555Z,90.61
2019-03-08T08:50:08.542Z,90.82
2019-03-08T08:51:08.555Z,90.20
2019-03-08T08:52:08.527Z,89.65
2019-03-08T08:53:08.548Z,90.12
2019-03-08T08:54:08.492Z,87.96
2019-03-08T08:55:08.490Z,88.57
2019-03-08T08:56:08.476Z,88.74
2019-03-08T08:57:08.465Z,88.37
2019-03-08T08:58:08.526Z,87.96
2019-03-08T08:59:08.463Z,88.51
2019-03-08T09:00:08.468Z,88.20
2019-03-08T09:01:08.427Z,88.62
2019-03-08T09:02:08.513Z,88.51
2019-03-08T09:03:08.396Z,88.41
2019-03-08T09:04:10.444Z,88.72
2019-03-08T09:05:08.386Z,88.06
2019-03-08T09:06:08.384Z,86.88
2019-03-08T09:07:08.371Z,85.89
2019-03-08T09:08:08.359Z,87.30
2019-03-08T09:09:08.355Z,86.10
2019-03-08T09:10:08.348Z,87.60
2019-03-08T09:11:08.310Z,87.03
2019-03-08T09:12:08.335Z,86.06
2019-03-08T09:13:08.292Z,85.41
2019-03-08T09:14:08.289Z,84.83
2019-03-08T09:15:08.267Z,85.41
2019-03-08T09:16:08.257Z,86.40
2019-03-08T09:17:08.272Z,85.16
2019-03-08T09:18:08.234Z,83.78
2019-03-08T09:19:08.231Z,83.85
2019-03-08T09:20:08.229Z,83.64
2019-03-08T09:21:08.209Z,82.92
2019-03-08T09:22:08.247Z,81.86
2019-03-08T09:23:08.180Z,83.09
2019-03-08T09:24:08.173Z,81.96
2019-03-08T09:25:08.178Z,80.83
2019-03-08T09:26:08.149Z,82.68
2019-03-08T09:27:08.150Z,80.42
2019-03-08T09:28:08.151Z,81.45
2019-03-08T09:29:08.117Z,79.02
2019-03-08T09:30:08.105Z,80.77
2019-03-08T09:31:08.102Z,80.80
2019-03-08T09:32:08.109Z,81.21
2019-03-08T09:33:08.104Z,81.42
2019-03-08T09:34:08.110Z,80.19
2019-03-08T09:35:08.050Z,80.70
2019-03-08T09:36:08.049Z,80.49
2019-03-08T09:37:08.032Z,81.32
2019-03-08T09:38:08.026Z,81.32
2019-03-08T09:39:08.059Z,82.04
2019-03-08T09:40:08.043Z,81.32
2019-03-08T09:41:07.994Z,78.64
2019-03-08T09:42:07.983Z,78.54
2019-03-08T09:43:07.967Z,78.85
2019-03-08T09:44:07.957Z,78.64
2019-03-08T09:45:07.965Z,78.85
2019-03-08T09:46:07.938Z,77.82
2019-03-08T09:47:07.923Z,78.44
2019-03-08T09:48:07.913Z,78.99
2019-03-08T09:49:07.903Z,79.81
2019-03-08T09:50:07.912Z,78.47
2019-03-08T09:51:07.900Z,79.05
2019-03-08T09:52:07.874Z,81.11
2019-03-08T09:53:07.865Z,80.25
2019-03-08T09:54:07.852Z,79.80
2019-03-08T09:55:07.890Z,78.06
2019-03-08T09:56:07.864Z,78.43
2019-03-08T09:57:07.834Z,75.66
2019-03-08T09:58:07.830Z,76.31
2019-03-08T09:59:07.798Z,75.80
2019-03-08T10:00:07.784Z,78.36
2019-03-08T10:01:16.332Z,77.95
2019-03-08T10:02:08.782Z,77.99
2019-03-08T10:03:07.754Z,78.44
2019-03-08T10:04:07.741Z,78.37
2019-03-08T10:05:07.730Z,78.78
2019-03-08T10:06:07.742Z,78.54
2019-03-08T10:07:07.705Z,79.05
2019-03-08T10:08:07.719Z,79.91
2019-03-08T10:09:07.684Z,76.48
2019-03-08T10:10:07.671Z,76.72
2019-03-08T10:11:07.668Z,77.47
2019-03-08T10:12:07.654Z,76.51
2019-03-08T10:13:07.660Z,76.55
2019-03-08T10:14:07.664Z,74.12
2019-03-08T10:15:07.628Z,74.98
2019-03-08T10:16:07.641Z,76.82
2019-03-08T10:17:07.602Z,76.45
2019-03-08T10:18:07.590Z,76.45
2019-03-08T10:19:07.573Z,75.70
2019-03-08T10:20:07.581Z,75.59
2019-03-08T10:21:07.587Z,75.25
2019-03-08T10:22:07.542Z,75.87
2019-03-08T10:23:07.536Z,74.43
2019-03-08T10:24:07.539Z,73.88
2019-03-08T10:25:07.548Z,74.40
2019-03-08T10:26:07.550Z,74.12
2019-03-08T10:27:07.488Z,74.32
2019-03-08T10:28:07.474Z,73.91
2019-03-08T10:29:07.468Z,75.45
2019-03-08T10:30:07.456Z,74.60
2019-03-08T10:31:07.473Z,75.76
2019-03-08T10:32:07.445Z,74.02
2019-03-08T10:33:07.430Z,73.81
2019-03-08T10:34:07.413Z,73.85
2019-03-08T10:35:07.411Z,73.74
2019-03-08T10:36:07.396Z,74.36
2019-03-08T10:37:07.439Z,73.68
2019-03-08T10:38:07.375Z,76.51
2019-03-08T10:39:07.362Z,74.08
2019-03-08T10:40:07.349Z,75.21
2019-03-08T10:41:07.334Z,76.59
2019-03-08T10:42:07.325Z,76.59
2019-03-08T10:43:07.342Z,76.62
2019-03-08T10:44:11.051Z,76.62
2019-03-08T10:45:08.296Z,78.47
2019-03-08T10:46:15.493Z,77.03
2019-03-08T10:47:08.283Z,75.70
2019-03-08T10:48:07.257Z,74.36
2019-03-08T10:49:07.277Z,75.08
2019-03-08T10:50:07.241Z,74.98
2019-03-08T10:51:07.253Z,74.87
2019-03-08T10:52:07.215Z,75.32
2019-03-08T10:53:07.205Z,75.84
2019-03-08T10:54:07.200Z,76.97
2019-03-08T10:55:07.194Z,77.28
2019-03-08T10:56:07.178Z,77.48
2019-03-08T10:57:07.188Z,78.86
2019-03-08T10:58:07.157Z,76.79
2019-03-08T10:59:07.141Z,78.55
2019-03-08T11:00:07.132Z,80.40
2019-03-08T11:01:07.129Z,82.19
2019-03-08T11:02:07.131Z,85.01
2019-03-08T11:03:07.103Z,84.43
2019-03-08T11:04:07.093Z,85.97
2019-03-08T11:05:07.074Z,88.04
2019-03-08T11:06:07.075Z,88.18
2019-03-08T11:07:07.080Z,89.46
2019-03-08T11:08:08.977Z,90.28
2019-03-08T11:09:07.038Z,90.19
2019-03-08T11:10:07.056Z,91.42
2019-03-08T11:11:07.045Z,90.91
2019-03-08T11:12:07.004Z,91.63
2019-03-08T11:13:07.021Z,92.35
2019-03-08T11:14:06.979Z,92.35
2019-03-08T11:15:06.974Z,93.18
2019-03-08T11:16:06.963Z,93.69
2019-03-08T11:17:06.970Z,92.66
2019-03-08T11:18:06.955Z,92.10
2019-03-08T11:19:09.023Z,91.85
2019-03-08T11:20:06.916Z,90.10
2019-03-08T11:21:06.912Z,90.92
2019-03-08T11:22:06.895Z,89.89
2019-03-08T11:23:06.884Z,90.72
2019-03-08T11:24:06.877Z,90.92
2019-03-08T11:25:08.603Z,89.58
2019-03-08T11:26:06.852Z,88.76
2019-03-08T11:27:06.843Z,89.95
2019-03-08T11:28:06.868Z,89.58
2019-03-08T11:29:06.850Z,88.45
2019-03-08T11:30:06.810Z,90.41
2019-03-08T11:31:06.814Z,88.56
2019-03-08T11:32:06.784Z,88.14
2019-03-08T11:33:06.774Z,87.42
2019-03-08T11:34:06.791Z,85.97
2019-03-08T11:35:06.764Z,85.15
2019-03-08T11:36:06.746Z,86.39
2019-03-08T11:37:06.729Z,85.67
2019-03-08T11:38:06.719Z,86.39
2019-03-08T11:39:06.733Z,86.49
2019-03-08T11:40:06.751Z,85.36
2019-03-08T11:41:06.696Z,85.97
2019-03-08T11:42:06.683Z,85.63
2019-03-08T11:43:06.667Z,86.16
2019-03-08T11:44:06.656Z,84.79
2019-03-08T11:45:06.644Z,83.50
2019-03-08T11:46:06.681Z,82.56
2019-03-08T11:47:06.625Z,80.13
2019-03-08T11:48:06.617Z,78.22
2019-03-08T11:49:06.607Z,77.64
2019-03-08T11:50:06.597Z,78.50
2019-03-08T11:51:06.580Z,78.85
2019-03-08T11:52:06.586Z,79.29
2019-03-08T11:53:06.562Z,80.15
2019-03-08T11:54:06.561Z,79.40
2019-03-08T11:55:06.537Z,80.94
2019-03-08T11:56:06.550Z,81.02
2019-03-08T11:57:06.512Z,82.46
2019-03-08T11:58:06.529Z,81.37
2019-03-08T11:59:06.520Z,82.19
2019-03-08T12:00:06.505Z,82.64
2019-03-08T12:01:06.503Z,82.74
2019-03-08T12:02:06.482Z,82.84
2019-03-08T12:03:06.449Z,83.01
2019-03-08T12:04:06.465Z,82.77
2019-03-08T12:05:06.429Z,81.02
2019-03-08T12:06:06.419Z,81.12
2019-03-08T12:07:06.410Z,80.43
2019-03-08T12:08:06.417Z,78.57
2019-03-08T12:09:06.410Z,75.97
2019-03-08T12:10:06.375Z,75.73
2019-03-08T12:11:06.369Z,77.26
2019-03-08T12:12:06.422Z,74.73
2019-03-08T12:13:06.348Z,74.77
2019-03-08T12:14:06.332Z,74.56
2019-03-08T12:15:06.344Z,74.53
2019-03-08T12:16:06.308Z,71.94
2019-03-08T12:17:06.305Z,70.91
2019-03-08T12:18:06.287Z,72.99
2019-03-08T12:19:06.280Z,72.99
2019-03-08T12:20:06.269Z,70.87
2019-03-08T12:21:06.299Z,72.96
2019-03-08T12:22:06.246Z,73.74
2019-03-08T12:23:06.238Z,72.78
2019-03-08T12:24:06.220Z,73.13
2019-03-08T12:25:06.215Z,72.07
2019-03-08T12:26:06.223Z,73.61
2019-03-08T12:27:06.189Z,73.36
2019-03-08T12:28:06.179Z,73.06
2019-03-08T12:29:06.169Z,73.91
2019-03-08T12:30:06.159Z,74.08
2019-03-08T12:31:06.166Z,73.23
2019-03-08T12:32:06.140Z,74.32
2019-03-08T12:33:06.129Z,73.98
2019-03-08T12:34:06.134Z,73.57
2019-03-08T12:35:06.106Z,73.64
2019-03-08T12:36:06.096Z,74.56
2019-03-08T12:37:06.080Z,73.54
2019-03-08T12:38:06.091Z,72.69
2019-03-08T12:39:06.062Z,71.05
2019-03-08T12:40:06.070Z,71.25
2019-03-08T12:41:06.040Z,73.16
2019-03-08T12:42:06.042Z,71.22
2019-03-08T12:43:08.395Z,69.45
2019-03-08T12:44:06.033Z,70.78
2019-03-08T12:45:06.001Z,71.15
2019-03-08T12:46:05.990Z,69.72
2019-03-08T12:47:05.981Z,70.43
2019-03-08T12:48:05.968Z,70.34
2019-03-08T12:49:05.971Z,72.41
2019-03-08T12:50:05.942Z,69.45
2019-03-08T12:51:05.935Z,70.92
2019-03-08T12:52:05.923Z,67.93